Share

Maud, OK

Northwood (KOKSEMIN6) Elev 909 ft | 35.25 °N, 96.69 °W | Change Station

Current weather conditions updated 7 seconds ago

Rain
Rain
62.1 °F
Feels Like 62.1 °F
N
13.8
Wind Variable Wind from SE
Gusts 13.8 mph
Sunrise 6:48 AM
Sunset 8:03 PM
Moon Waning Gibbous

Tomorrow is forecast to be nearly the same temperature as today. Thunderstorms early.

Pressure 29.98 in
Visibility 7.0 miles
Clouds Scattered Clouds 700 ft
Overcast 11000 ft
Dew Point 60 °F
Humidity 94%
Rainfall 0.11 in
Snow Depth Not available.
UV 0.0 out of 16
Pollen 8.70 out of 12
Air Quality Not available.
Flu Activity Regional
METAR KSNL 210055Z AUTO 13008KT 7SM SCT007 OVC110 17/17 A2998 RMK AO2 P0001

More Conditions Fewer Conditions

Pressure 29.98 in
Visibility 7.0 miles
Clouds Scattered Clouds 700 ft
Overcast 11000 ft
Dew Point 60 °F
Humidity 94%
Rainfall 0.11 in
Snow Depth Not available.
UV 0.0 out of 16
Pollen 8.70 out of 12
Air Quality Not available.
Flu Activity Regional
METAR KSNL 210055Z AUTO 13008KT 7SM SCT007 OVC110 17/17 A2998 RMK AO2 P0001

More Conditions Fewer Conditions

10-Day Weather Forecast

Almanac

Astronomy

Apr. 20, 2014 Rise Set
Actual Time 6:48 AM CDT 8:03 PM CDT
Civil Twilight 6:22 AM CDT 8:30 PM CDT
Nautical Twilight 5:50 AM CDT 9:01 PM CDT
Astronomical Twilight 5:18 AM CDT 9:34 PM CDT
Moon 12:40 AM CDT (4/20) 11:14 AM CDT (4/20)
Length of Visible Light 14h 08m
Length of Day
13h 15m
Tomorrow will be 2m 3s longer.
Waning Gibbous, 64% of the Moon is Illuminated
Today
Waning Gibbous
Apr 22
Last Quarter
Apr 29
New
May 6
First Quarter
May 14
Full

Today's Extremes

State Highs State Lows

Community

  • Easter Dance
    Easter Dance
  • spring skiing mount Baker WA
    spring skiing mount Baker WA
  • Morning Sun
    Morning Sun
  • Happy Easter
    Happy Easter
  • after rain
    after rain

WunderPhotos

Upload Photos

1,703,480 photos uploaded!

WunderBlogs® & News

Nearby

Snow Depth

Station Depth Elevation
No new snow has been reported.

Coastal Water Temperatures

Place Temperature
No Stations Reporting

Earthquake Activity

City Distance Mag. Time & Date
Helena, Oklahoma 127 miles 3.4 6:50 AM CDT
2014-04-17
Perry, Oklahoma 76 miles 2.7 11:52 AM CDT
2014-04-16
Crescent, Oklahoma 84 miles 2.8 7:36 PM CDT
2014-04-15
Perry, Oklahoma 84 miles 2.5 1:42 PM CDT
2014-04-14
Minimum magnitude displayed is 2.5.

Nearby Weather Stations

Station Location Temp. Dew Point Humidity Wind Precip. Elev Updated Type
Northwood, Seminole, OK 62.1 °F 60 °F 94% SE  at  13.8 mph 0.02 in / hr 909 ft 8:08 PM CDT Rapid Fire
Strothers & Harvey Road SE, Seminole, OK 62.1 °F 60 °F 92% SE  at  14.0 mph 0.00 in / hr 955 ft 8:07 PM CDT Normal
Emergency Operations Center, Holdenville, OK 63.3 °F 62 °F 94% South  at  3.0 mph 0.08 in / hr 908 ft 8:05 PM CDT Normal

Show More Stations Show Fewer Stations

What do you think?

We're not finished. Please let us know what you like, what you don't like, and what you are still missing.